• Join FlightAware (Why Join?)
  • Login
  • US Flag 
02:01AM EST


 

Airport Tracker/Info


-or-


 

Live Flight TrackerFlight Track Log ✈ UAL289 ✈ 29-Apr-2013 ✈ KLGA - KORD

Flight Track Log - Related Links

Times and Time Zones

All times are in EDT time to prevent confusion due to time zone crossing. See the UAL289 flight status page for this flight to view local times or setup timezone preferences in your user account.

Time Position Orientation Groundspeed Altitude Reporting Facility
EDT Latitude Longitude Course Direction KTS MPH feet Rate Location/Type
01:10PM 40.7333 -73.8167 304° West 203 234 3,500  Level New York TRACON
01:11PM 40.9292 -74.2249 304° West  Level FlightAware Approximate
01:11PM 40.8000 -73.7667 30° Northeast 285 328 6,000  Level New York TRACON
01:12PM 40.9874 -74.3431 299° West  Level FlightAware Approximate
01:12PM 40.8500 -73.8500 308° West 278 320 8,900  Level New York TRACON
01:13PM 41.0390 -74.4668 299° West  Level FlightAware Approximate
01:13PM 40.9403 -74.0014 308° West 302 348 12,100  Level New York Center
01:14PM 41.0923 -74.5892 298° West  Level FlightAware Approximate
01:14PM 41.0169 -74.0903 319° Northwest 375 432 15,000  Level New York Center
01:15PM 41.1382 -74.7097 304° West  Level FlightAware Approximate
01:15PM 41.0817 -74.2339 301° West 412 474 17,200  Level New York Center
01:16PM 41.1217 -74.3628 292° West 412 474 18,700 915 Climbing New York Center
01:17PM 41.1728 -74.5253 293° West 424 488 19,000 610 Climbing New York Center
01:18PM 41.2222 -74.6714 294° West 430 495 19,900 1,488 Climbing New York Center
01:19PM 41.2692 -74.8203 293° West 430 495 22,000 2,380 Climbing New York Center
01:20PM 41.3178 -74.9808 292° West 447 514 24,700 2,727 Climbing New York Center
01:21PM 41.3683 -75.1386 293° West 460 529 27,500 2,628 Climbing New York Center
01:22PM 41.4147 -75.2883 292° West 455 524 30,000 2,237 Climbing New York Center
01:23PM 41.4592 -75.4297 293° West 436 502 31,900 1,780 Climbing New York Center
01:24PM 41.5017 -75.5683 292° West 421 484 33,500 1,339 Climbing New York Center
01:25PM 41.5414 -75.7128 290° West 414 476 34,600 992 Climbing New York Center
01:26PM 41.5814 -75.8542 291° West 414 476 35,500 694 Climbing New York Center
01:27PM 41.6231 -75.9989 291° West 414 476 36,000 252 Climbing New York Center
01:28PM 41.6625 -76.1408 290° West 419 482 36,000  Level New York Center
01:29PM 41.7036 -76.2886 290° West 419 482 36,000  Level New York Center
01:30PM 41.7447 -76.4339 291° West 419 482 36,000  Level New York Center
01:31PM 41.7819 -76.5678 290° West 414 476 36,000  Level New York Center
01:33PM 41.8761 -76.9044 291° West 429 494 36,000  Level Cleveland Center
01:34PM 41.9164 -77.0586 289° West 434 499 36,000  Level Cleveland Center
01:35PM 41.9586 -77.2128 290° West 434 499 36,000  Level Cleveland Center
01:36PM 42.0003 -77.3642 290° West 434 499 36,000  Level Cleveland Center
01:37PM 42.0400 -77.5161 289° West 434 499 36,000  Level Cleveland Center
01:38PM 42.0794 -77.6708 289° West 434 499 36,000  Level Cleveland Center
01:39PM 42.1228 -77.8256 291° West 434 499 36,000  Level Cleveland Center
01:40PM 42.1600 -77.9808 288° West 434 499 36,000  Level Cleveland Center
01:41PM 42.2008 -78.1333 290° West 434 499 36,000  Level Cleveland Center
01:42PM 42.2414 -78.2806 290° West 434 499 36,000  Level Cleveland Center
01:43PM 42.2797 -78.4333 289° West 434 499 36,000  Level Cleveland Center
01:44PM 42.3200 -78.5867 290° West 434 499 36,000  Level Cleveland Center
01:45PM 42.3578 -78.7372 289° West 434 499 36,000  Level Cleveland Center
01:46PM 42.3978 -78.8933 289° West 434 499 36,000  Level Cleveland Center
01:47PM 42.4333 -79.0472 287° West 434 499 36,000  Level Cleveland Center
01:48PM 42.4750 -79.2011 290° West 434 499 36,000  Level Cleveland Center
01:49PM 42.4975 -79.3639 281° West 434 499 36,000  Level Cleveland Center
01:50PM 42.5056 -79.5297 274° West 434 499 36,000  Level Cleveland Center
01:51PM 42.5131 -79.6903 274° West 434 499 36,000  Level Cleveland Center
01:52PM 42.5206 -79.8536 274° West 439 505 36,000  Level Cleveland Center
01:53PM 42.5233 -80.0169 271° West 439 505 36,000  Level Cleveland Center
01:54PM 42.5325 -80.1803 274° West 439 505 36,000  Level Cleveland Center
01:55PM 42.5392 -80.3408 273° West 439 505 36,000  Level Cleveland Center
01:56PM 42.5456 -80.5014 273° West 439 505 36,000  Level Cleveland Center
01:57PM 42.5519 -80.6422 274° West 431 496 36,000  Level Cleveland Center
01:58PM 42.5581 -80.8031 273° West 431 496 36,000  Level Cleveland Center
01:59PM 42.5639 -80.9581 273° West 425 489 36,000  Level Cleveland Center
02:00PM 42.5694 -81.1217 273° West 425 489 36,000  Level Cleveland Center
02:01PM 42.5747 -81.2794 273° West 425 489 36,000  Level Cleveland Center
02:02PM 42.5819 -81.4375 274° West 425 489 36,000  Level Cleveland Center
02:03PM 42.6078 -81.5931 283° West 425 489 36,000  Level Cleveland Center
02:04PM 42.6356 -81.7431 284° West 425 489 36,000  Level Cleveland Center
02:05PM 42.6592 -81.8931 282° West 415 478 36,000  Level Cleveland Center
02:06PM 42.6886 -82.0464 285° West 415 478 36,000  Level Cleveland Center
02:07PM 42.7136 -82.2022 282° West 415 478 36,000  Level Cleveland Center
02:08PM 42.7403 -82.3586 283° West 415 478 36,000  Level Cleveland Center
02:09PM 42.7544 -82.5172 277° West 415 478 36,000  Level Cleveland Center
02:10PM 42.7664 -82.6761 276° West 420 483 36,000  Level Cleveland Center
02:11PM 42.7778 -82.8375 276° West 428 493 36,000  Level Cleveland Center
02:12PM 42.7892 -82.9964 276° West 428 493 36,000  Level Cleveland Center
02:13PM 42.7983 -83.1525 275° West 428 493 36,000  Level Cleveland Center
02:14PM 42.8092 -83.3114 275° West 428 493 36,000  Level Cleveland Center
02:15PM 42.8200 -83.4678 275° West 428 493 36,000  Level Cleveland Center
02:16PM 42.8286 -83.6208 274° West 423 487 36,000  Level Cleveland Center
02:17PM 42.8369 -83.7742 274° West 423 487 36,000  Level Cleveland Center
02:18PM 42.8453 -83.9247 274° West 417 480 36,000 -1,050 Level Cleveland Center
02:19PM 42.8553 -84.0783 275° West 412 474 33,900 -2,000 Descending Cleveland Center
02:20PM 42.8631 -84.2347 274° West 407 468 32,000 -884 Descending Cleveland Center
02:22PM 42.8761 -84.4242 275° West 418 481 32,000  Level Chicago Center
02:23PM 42.8831 -84.5806 274° West 415 478 32,000  Level Chicago Center
02:24PM 42.8686 -84.7356 263° West 414 476 32,000  Level Chicago Center
02:25PM 42.8517 -84.8892 261° West 412 474 32,000  Level Chicago Center
02:26PM 42.8358 -85.0453 262° West 414 476 32,000  Level Chicago Center
02:27PM 42.8194 -85.1989 262° West 412 474 32,000  Level Chicago Center
02:28PM 42.7986 -85.3856 261° West 414 476 32,000  Level Chicago Center
02:29PM 42.7797 -85.5417 261° West 416 479 32,000  Level Chicago Center
02:30PM 42.7511 -85.6939 256° West 413 475 32,000  Level Chicago Center
02:31PM 42.7233 -85.8481 256° West 416 479 32,000 -1,113 Level Chicago Center
02:32PM 42.6956 -86.0003 256° West 413 475 29,700 -3,629 Descending Chicago Center
02:33PM 42.6678 -86.1556 256° West 418 481 24,500 -4,694 Descending Chicago Center
02:34PM 42.6375 -86.3136 255° West 429 494 20,000 -2,177 Descending Chicago Center
02:35PM 42.6078 -86.4672 255° West 422 486 20,000 -339 Level Chicago Center
02:36PM 42.5722 -86.6556 256° West 429 494 19,300 -1,548 Descending Chicago Center
02:37PM 42.5383 -86.8117 254° West 420 483 16,800 -2,661 Descending Chicago Center
02:38PM 42.5003 -86.9489 249° West 407 468 13,800 -3,048 Descending Chicago Center
02:39PM 42.4631 -87.0803 249° West 383 441 10,500 -1,839 Descending Chicago Center
02:40PM 42.4325 -87.1886 249° West 312 359 10,000 -1,016 Descending Chicago Center
02:41PM 42.4039 -87.2819 247° West 273 314 8,400 -1,452 Descending Chicago Center
02:42PM 42.3719 -87.3925 249° West 265 305 7,000 -677 Descending Chicago Center
02:43PM 42.3469 -87.4794 249° West 262 302 7,000 -532 Level Chicago Center
02:44PM 42.2992 -87.5611 232° Southwest 273 314 5,900 -968 Descending Chicago Center
02:45PM 42.2433 -87.6225 219° Southwest 261 300 5,000 -581 Descending Chicago Center
02:46PM 42.1769 -87.6969 220° Southwest 258 297 4,700 -919 Descending Chicago Center
02:47PM 42.1233 -87.7575 220° Southwest 254 292 3,100 -1,361 Descending Chicago Center
02:48PM 42.0833 -87.8000 218° Southwest 242 278 2,500 -632 Descending Chicago TRACON
02:49PM 42.0500 -87.8333 217° Southwest 156 180 2,100 -571 Descending Chicago TRACON
02:50PM 42.0167 -87.8667 217° Southwest 124 143 1,300 -727 Descending Chicago TRACON